Time;durP1;ratioP1;P1;durP2;ratioP2;P2;SDS_P1;SDS_P2;PMS_P1;PMS_P2;Temp;Humidity;BMP_temperature;BMP_pressure;BME280_temperature;BME280_humidity;BME280_pressure;Samples;Min_cycle;Max_cycle;Signal;HPM_P1;HPM_P2
2024/01/28 00:01:02;;;;;;;2.63;2.33;;;;;;;-144.30;57.43;86163.88;5070240;28;20710;-57
2024/01/28 00:03:29;;;;;;;4.80;2.20;;;;;;;-144.30;57.77;86394.53;5069775;28;20750;-58
2024/01/28 00:05:56;;;;;;;1.97;1.83;;;;;;;-144.30;58.01;86414.41;5070056;28;20223;-57
2024/01/28 00:08:25;;;;;;;1.60;1.50;;;;;;;-144.30;58.42;86400.50;5069864;28;20207;-58
2024/01/28 00:10:54;;;;;;;1.73;1.63;;;;;;;-144.30;58.47;86390.53;5069902;28;20207;-59
2024/01/28 00:13:24;;;;;;;2.73;2.53;;;;;;;-144.30;58.71;86384.59;5069760;28;20202;-57
2024/01/28 00:15:52;;;;;;;3.33;2.80;;;;;;;-144.30;58.59;86366.69;5069754;28;20346;-57
2024/01/28 00:18:20;;;;;;;2.63;2.37;;;;;;;-144.30;58.67;86163.88;5069646;28;20684;-58
2024/01/28 00:20:47;;;;;;;3.83;2.63;;;;;;;-144.30;58.33;86374.63;5069763;28;20207;-57
2024/01/28 00:23:13;;;;;;;2.50;2.20;;;;;;;-144.30;58.73;86754.47;5069519;28;20207;-59
2024/01/28 00:25:41;;;;;;;4.63;2.07;;;;;;;-144.30;58.74;86396.50;5069561;28;20583;-58
2024/01/28 00:28:09;;;;;;;3.17;2.10;;;;;;;-144.30;59.55;86386.56;5069594;28;20236;-57
2024/01/28 00:30:36;;;;;;;4.80;2.83;;;;;;;-144.30;59.29;86366.69;5069549;28;20695;-58
2024/01/28 00:33:03;;;;;;;3.33;1.80;;;;;;;-144.30;59.12;86412.41;5069577;28;20203;-57
2024/01/28 00:35:30;;;;;;;7.93;3.03;;;;;;;-144.30;59.58;86374.63;5069279;28;20232;-57
2024/01/28 00:37:58;;;;;;;2.20;2.00;;;;;;;-144.30;59.37;86402.47;5069744;28;20282;-58
2024/01/28 00:40:25;;;;;;;4.80;2.00;;;;;;;-144.30;60.14;86412.41;5069751;28;20672;-57
2024/01/28 00:42:52;;;;;;;3.27;2.00;;;;;;;-144.30;59.78;86426.34;5069749;28;20711;-58
2024/01/28 00:45:20;;;;;;;1.77;1.60;;;;;;;-144.30;59.97;86390.53;5069362;28;20199;-57
2024/01/28 00:47:47;;;;;;;2.63;2.00;;;;;;;-144.30;60.36;86412.41;5069468;28;20274;-57
2024/01/28 00:50:14;;;;;;;4.50;2.43;;;;;;;-144.30;60.45;86406.44;5069410;28;20672;-58
2024/01/28 00:52:43;;;;;;;2.17;1.97;;;;;;;-144.30;60.50;86382.59;5069148;28;20573;-57
2024/01/28 00:55:11;;;;;;;2.10;1.90;;;;;;;-144.30;60.48;86384.59;5069077;28;20195;-57
2024/01/28 00:57:38;;;;;;;3.20;2.17;;;;;;;-144.30;60.70;86418.38;5069074;28;20196;-58
2024/01/28 01:00:06;;;;;;;3.00;2.00;;;;;;;-144.30;60.77;86410.44;5069189;28;20207;-58
2024/01/28 01:02:35;;;;;;;2.17;1.70;;;;;;;-144.30;60.86;86382.59;5068915;28;20196;-58
2024/01/28 01:05:02;;;;;;;3.07;2.13;;;;;;;-144.30;61.30;86394.53;5069154;28;20596;-58
2024/01/28 01:07:29;;;;;;;2.27;2.00;;;;;;;-144.30;61.04;86438.28;5069312;28;20590;-57
2024/01/28 01:09:57;;;;;;;4.47;1.93;;;;;;;-144.30;61.21;86374.63;5069405;28;20196;-58
2024/01/28 01:12:24;;;;;;;2.77;1.90;;;;;;;-144.30;60.75;86386.56;5069159;28;20219;-59
2024/01/28 01:14:51;;;;;;;2.90;2.40;;;;;;;-144.30;60.58;86382.59;5069181;28;20291;-59
2024/01/28 01:17:18;;;;;;;1.90;1.80;;;;;;;-144.30;60.80;86297.09;5069005;28;20311;-57
2024/01/28 01:19:46;;;;;;;2.73;2.07;;;;;;;-144.30;60.99;86422.38;5069251;28;20774;-58
2024/01/28 01:22:14;;;;;;;2.30;2.10;;;;;;;-144.30;60.77;86390.53;5068904;28;20192;-58
2024/01/28 01:24:41;;;;;;;2.47;2.20;;;;;;;-144.30;61.13;86412.41;5068829;28;20196;-59
2024/01/28 01:27:08;;;;;;;2.33;2.00;;;;;;;-144.30;61.38;86412.41;5068782;28;20196;-58
2024/01/28 01:29:35;;;;;;;2.30;1.90;;;;;;;-144.30;61.38;86354.75;5068856;28;20679;-58
2024/01/28 01:32:02;;;;;;;4.40;2.10;;;;;;;-144.30;61.67;86404.47;5068968;28;20294;-59
2024/01/28 01:34:29;;;;;;;3.27;2.13;;;;;;;-144.30;61.75;86394.53;5069103;28;20680;-57
2024/01/28 01:36:57;;;;;;;3.10;2.83;;;;;;;-144.30;61.70;86402.47;5068710;28;20310;-59
2024/01/28 01:39:25;;;;;;;4.40;2.10;;;;;;;-144.30;61.76;86388.56;5071422;28;20279;-57
2024/01/28 01:41:52;;;;;;;6.33;1.97;;;;;;;-144.30;61.45;86412.41;5072643;28;20203;-58
2024/01/28 01:44:20;;;;;;;4.90;1.97;;;;;;;-144.30;61.11;86402.47;5072234;28;20626;-58
2024/01/28 01:46:47;;;;;;;1.80;1.70;;;;;;;-144.30;61.57;86440.25;5072428;28;20687;-57
2024/01/28 01:49:14;;;;;;;3.63;2.07;;;;;;;-144.30;61.45;86436.28;5072567;28;20340;-58
2024/01/28 01:51:42;;;;;;;2.33;2.13;;;;;;;-144.30;61.47;86414.41;5072322;28;20651;-58
2024/01/28 01:54:11;;;;;;;2.37;1.80;;;;;;;-144.30;61.52;86428.31;5072274;28;20236;-58
2024/01/28 01:56:39;;;;;;;2.47;2.13;;;;;;;-144.30;61.48;86422.38;5071986;28;20281;-58
2024/01/28 01:59:07;;;;;;;2.57;1.93;;;;;;;-144.30;61.42;86384.59;5072174;28;20196;-57
2024/01/28 02:01:35;;;;;;;6.60;2.70;;;;;;;-144.30;61.35;86376.63;5072111;28;20292;-57
2024/01/28 02:04:02;;;;;;;2.57;2.10;;;;;;;-144.30;61.51;86410.44;5072522;28;20579;-58
2024/01/28 02:06:29;;;;;;;2.37;2.03;;;;;;;-144.30;61.90;86438.28;5072247;28;20582;-57
2024/01/28 02:08:57;;;;;;;2.57;2.27;;;;;;;-144.30;61.81;86283.16;5072330;28;20675;-57
2024/01/28 02:11:26;;;;;;;2.03;1.70;;;;;;;-144.30;61.86;86412.41;5072026;28;20207;-58
2024/01/28 02:13:54;;;;;;;2.20;2.00;;;;;;;-144.30;62.29;86402.47;5071814;28;20200;-58
2024/01/28 02:16:21;;;;;;;3.53;2.47;;;;;;;-144.30;61.90;86450.19;5071804;28;20224;-58
2024/01/28 02:18:48;;;;;;;3.23;2.20;;;;;;;-144.30;62.25;86420.38;5071800;28;20676;-57
2024/01/28 02:21:15;;;;;;;2.47;2.27;;;;;;;-144.30;62.34;86428.31;5071503;28;20231;-59
2024/01/28 02:23:43;;;;;;;2.20;2.00;;;;;;;-144.30;62.13;86438.28;5071464;28;20278;-58
2024/01/28 02:26:10;;;;;;;2.27;1.90;;;;;;;-144.30;62.56;86460.16;5071351;28;20239;-57
2024/01/28 02:28:37;;;;;;;4.13;2.23;;;;;;;-144.30;62.71;86448.22;5071228;28;20232;-57
2024/01/28 02:31:05;;;;;;;5.10;2.50;;;;;;;-144.30;62.59;86408.44;5071628;28;20192;-57
2024/01/28 02:33:32;;;;;;;3.30;2.17;;;;;;;-144.30;62.22;86430.31;5071309;28;20199;-57
2024/01/28 02:35:59;;;;;;;6.43;2.63;;;;;;;-144.30;62.19;86406.44;5071425;28;20249;-56
2024/01/28 02:38:26;;;;;;;2.63;2.40;;;;;;;-144.30;62.53;86420.38;5071106;28;20203;-58
2024/01/28 02:40:55;;;;;;;5.30;2.43;;;;;;;-144.30;62.02;86450.19;5071207;28;20283;-57
2024/01/28 02:43:22;;;;;;;2.87;2.67;;;;;;;-144.30;62.61;86432.31;5070982;28;20200;-57
2024/01/28 02:45:49;;;;;;;5.10;2.10;;;;;;;-144.30;62.57;86458.16;5071017;28;20668;-58
2024/01/28 02:48:16;;;;;;;4.50;2.53;;;;;;;-144.30;62.22;86454.19;5071491;28;20230;-58
2024/01/28 02:50:43;;;;;;;2.50;2.30;;;;;;;-144.30;62.39;86412.41;5071151;28;20278;-57
2024/01/28 02:53:10;;;;;;;5.63;2.70;;;;;;;-144.30;62.46;86450.19;5071242;28;20206;-56
2024/01/28 02:55:37;;;;;;;3.60;2.60;;;;;;;-144.30;62.29;86438.28;5071054;28;20645;-58
2024/01/28 02:58:06;;;;;;;5.37;2.60;;;;;;;-144.30;62.57;86346.81;5071349;28;20787;-57
2024/01/28 03:00:35;;;;;;;5.53;2.60;;;;;;;-144.30;62.57;86450.19;5070983;28;20196;-57
2024/01/28 03:03:04;;;;;;;3.73;2.70;;;;;;;-144.30;62.54;86430.31;5071246;28;20220;-57
2024/01/28 03:05:31;;;;;;;4.67;2.47;;;;;;;-144.30;62.30;86418.38;5070641;28;20207;-57
2024/01/28 03:07:58;;;;;;;4.37;2.60;;;;;;;-144.30;62.68;86410.44;5070800;28;20275;-58
2024/01/28 03:10:25;;;;;;;3.63;2.30;;;;;;;-144.30;62.73;86448.22;5070655;28;20203;-58
2024/01/28 03:12:52;;;;;;;5.00;2.33;;;;;;;-144.30;62.73;86448.22;5070807;28;20208;-57
2024/01/28 03:15:21;;;;;;;2.67;2.47;;;;;;;-144.30;62.57;86454.19;5070871;28;20261;-58
2024/01/28 03:17:48;;;;;;;6.00;2.33;;;;;;;-144.30;62.69;86428.31;5070681;28;20246;-58
2024/01/28 03:20:17;;;;;;;3.80;2.80;;;;;;;-144.30;63.00;86454.19;5070715;28;20199;-58
2024/01/28 03:22:44;;;;;;;2.83;2.40;;;;;;;-144.30;62.97;86430.31;5070568;28;20275;-57
2024/01/28 03:25:12;;;;;;;3.73;2.77;;;;;;;-144.30;62.53;86454.19;5070864;28;20196;-58
2024/01/28 03:27:39;;;;;;;2.47;2.27;;;;;;;-144.30;62.90;86474.06;5070321;28;20219;-57
2024/01/28 03:30:08;;;;;;;4.77;2.40;;;;;;;-144.30;63.12;86438.28;5070712;28;20283;-58
2024/01/28 03:32:36;;;;;;;3.97;2.40;;;;;;;-144.30;63.06;86452.19;5070420;28;20202;-57
2024/01/28 03:35:04;;;;;;;2.50;2.13;;;;;;;-144.30;63.40;86420.38;5070353;28;20199;-57
2024/01/28 03:37:31;;;;;;;2.77;2.57;;;;;;;-144.30;63.75;86462.13;5070251;28;21147;-58
2024/01/28 03:39:58;;;;;;;3.03;2.43;;;;;;;-144.30;63.72;86440.25;5070461;28;20254;-57
2024/01/28 03:42:26;;;;;;;3.60;2.50;;;;;;;-144.30;64.01;86408.44;5070114;28;20206;-57
2024/01/28 03:44:53;;;;;;;3.77;2.43;;;;;;;-144.30;64.04;86450.19;5070199;28;20304;-57
2024/01/28 03:47:20;;;;;;;4.40;2.90;;;;;;;-144.30;64.15;86054.50;5070034;28;20667;-57
2024/01/28 03:49:48;;;;;;;6.43;3.23;;;;;;;-144.30;63.93;86416.41;5070114;28;20204;-58
2024/01/28 03:52:16;;;;;;;4.87;2.60;;;;;;;-144.30;64.17;86440.25;5070297;28;20277;-58
2024/01/28 03:54:43;;;;;;;2.97;2.70;;;;;;;-144.30;64.16;86450.19;5069860;28;20205;-57
2024/01/28 03:57:10;;;;;;;4.20;2.70;;;;;;;-144.30;64.33;86438.28;5069780;28;20246;-57
2024/01/28 03:59:39;;;;;;;4.90;2.47;;;;;;;-144.30;64.48;86484.00;5069957;28;20195;-57
2024/01/28 04:02:07;;;;;;;2.30;2.20;;;;;;;-144.30;64.03;86424.34;5069498;28;20206;-58
2024/01/28 04:04:35;;;;;;;2.40;2.20;;;;;;;-144.30;64.29;86836.00;5069696;28;20204;-56
2024/01/28 04:07:03;;;;;;;2.17;1.97;;;;;;;-144.30;64.18;86446.22;5070181;28;20200;-57
2024/01/28 04:09:30;;;;;;;1.90;1.80;;;;;;;-144.30;64.07;86474.06;5069680;28;20206;-57
2024/01/28 04:11:58;;;;;;;3.30;2.00;;;;;;;-144.30;64.71;86422.38;5069907;28;20234;-56
2024/01/28 04:14:25;;;;;;;5.20;2.40;;;;;;;-144.30;64.34;86466.09;5069709;28;20245;-57
2024/01/28 04:16:52;;;;;;;2.30;2.10;;;;;;;-144.30;63.97;86462.13;5069624;28;20215;-58
2024/01/28 04:19:19;;;;;;;4.90;2.60;;;;;;;-144.30;63.59;86376.63;5069985;28;20204;-57
2024/01/28 04:21:46;;;;;;;3.77;2.47;;;;;;;-144.30;63.83;86440.25;5069643;28;20231;-57
2024/01/28 04:24:14;;;;;;;3.23;2.67;;;;;;;-144.30;63.79;86472.06;5069977;28;20737;-57
2024/01/28 04:26:41;;;;;;;2.63;2.40;;;;;;;-144.30;63.14;86474.06;5069669;28;20207;-57
2024/01/28 04:29:08;;;;;;;5.53;2.20;;;;;;;-144.30;62.83;86438.28;5069513;28;20234;-58
2024/01/28 04:31:35;;;;;;;4.80;2.30;;;;;;;-144.30;62.83;86418.38;5069504;28;20743;-58
2024/01/28 04:34:02;;;;;;;2.27;2.07;;;;;;;-144.30;62.56;86422.38;5069640;28;20196;-58
2024/01/28 04:36:29;;;;;;;2.40;2.20;;;;;;;-144.30;62.61;86448.22;5069216;28;20207;-58
2024/01/28 04:38:56;;;;;;;2.40;2.20;;;;;;;-144.30;62.37;86450.19;5069679;28;20207;-58
2024/01/28 04:41:24;;;;;;;2.30;2.10;;;;;;;-144.30;62.23;86466.09;5069448;28;20711;-57
2024/01/28 04:43:51;;;;;;;4.00;2.40;;;;;;;-144.30;61.88;86432.31;5068169;28;20295;-57
2024/01/28 04:46:18;;;;;;;2.40;2.17;;;;;;;-144.30;62.08;86422.38;5069539;28;20227;-57
2024/01/28 04:48:45;;;;;;;3.03;2.10;;;;;;;-144.30;61.73;86454.19;5069819;28;20200;-58
2024/01/28 04:51:12;;;;;;;2.53;2.33;;;;;;;-144.30;61.70;86468.09;5069763;28;20227;-57
2024/01/28 04:53:39;;;;;;;2.40;2.00;;;;;;;-144.30;61.85;86418.38;5069419;28;20677;-57
2024/01/28 04:56:07;;;;;;;4.37;2.20;;;;;;;-144.30;61.88;86448.22;5069489;28;20291;-57
2024/01/28 04:58:35;;;;;;;2.30;2.07;;;;;;;-144.30;62.07;86430.31;5069147;28;20678;-58
2024/01/28 05:01:02;;;;;;;3.73;2.10;;;;;;;-144.30;61.87;86434.28;5069376;28;20198;-56
2024/01/28 05:03:29;;;;;;;3.33;2.30;;;;;;;-144.30;62.06;86420.38;5064258;28;20536;-58
2024/01/28 05:05:56;;;;;;;6.20;2.30;;;;;;;-144.30;61.35;86458.16;5061871;28;20208;-58
2024/01/28 05:08:24;;;;;;;3.03;2.07;;;;;;;-144.30;62.00;86454.19;5060825;28;20254;-57
2024/01/28 05:10:51;;;;;;;5.43;2.30;;;;;;;-144.30;62.05;86458.16;5053317;28;20196;-58
2024/01/28 05:13:18;;;;;;;6.03;2.67;;;;;;;-144.30;62.04;86462.13;5067999;28;20235;-58
2024/01/28 05:15:46;;;;;;;2.57;2.37;;;;;;;-144.30;61.86;86462.13;5068882;28;20205;-58
2024/01/28 05:18:14;;;;;;;3.80;2.50;;;;;;;-144.30;61.81;86438.28;5072597;28;20716;-57
2024/01/28 05:20:41;;;;;;;4.83;2.73;;;;;;;-144.30;61.74;86434.28;5072218;28;20204;-57
2024/01/28 05:23:08;;;;;;;2.43;2.23;;;;;;;-144.30;61.83;86450.19;5058017;28;20201;-58
2024/01/28 05:25:35;;;;;;;5.40;2.53;;;;;;;-144.30;61.88;86446.22;5052215;28;20197;-57
2024/01/28 05:28:02;;;;;;;6.73;2.33;;;;;;;-144.30;62.20;86458.16;5052406;28;20265;-57
2024/01/28 05:30:30;;;;;;;4.17;2.70;;;;;;;-144.30;62.04;86428.31;5065711;28;20207;-57
2024/01/28 05:32:58;;;;;;;2.97;2.20;;;;;;;-144.30;62.44;86487.97;5072365;28;20206;-57
2024/01/28 05:35:25;;;;;;;7.03;2.20;;;;;;;-144.30;62.21;86454.19;5070030;28;20630;-58
2024/01/28 05:37:52;;;;;;;2.97;2.57;;;;;;;-144.30;62.40;86462.13;5061000;28;20317;-57
2024/01/28 05:40:19;;;;;;;5.80;2.40;;;;;;;-144.30;62.25;86470.09;5052117;28;20246;-59
2024/01/28 05:42:46;;;;;;;4.00;2.67;;;;;;;-144.30;62.28;86438.28;5052243;28;20239;-57
2024/01/28 05:45:14;;;;;;;3.07;2.20;;;;;;;-144.30;62.10;86486.00;5052463;28;20734;-57
2024/01/28 05:47:41;;;;;;;4.83;2.50;;;;;;;-144.30;62.16;86470.09;5052117;28;20283;-58
2024/01/28 05:50:11;;;;;;;2.30;2.10;;;;;;;-144.30;61.93;86456.16;5065756;28;20645;-57
2024/01/28 05:52:38;;;;;;;4.40;2.40;;;;;;;-144.30;62.02;86480.03;5071953;28;20746;-57
2024/01/28 05:55:05;;;;;;;4.73;2.43;;;;;;;-144.30;62.32;86466.09;5072136;28;20235;-57
2024/01/28 05:57:32;;;;;;;2.57;2.37;;;;;;;-144.30;61.99;86472.06;5072123;28;20784;-57
2024/01/28 06:00:00;;;;;;;2.67;2.47;;;;;;;-144.30;62.00;86466.09;5072006;28;20231;-58
2024/01/28 06:02:27;;;;;;;4.87;2.37;;;;;;;-144.30;61.58;86430.31;5073320;28;20262;-57
2024/01/28 06:04:54;;;;;;;4.80;2.70;;;;;;;-144.30;61.59;86454.19;5069806;28;20588;-57
2024/01/28 06:07:22;;;;;;;3.63;2.70;;;;;;;-144.30;61.70;86448.22;5053222;28;20660;-58
2024/01/28 06:09:49;;;;;;;7.30;2.87;;;;;;;-144.30;62.06;86378.63;5052150;28;20291;-57
2024/01/28 06:12:18;;;;;;;4.37;2.73;;;;;;;-144.30;61.71;86454.19;5052091;28;20256;-57
2024/01/28 06:14:45;;;;;;;4.33;3.00;;;;;;;-144.30;61.64;86442.25;5057100;28;20201;-56
2024/01/28 06:17:12;;;;;;;4.40;3.13;;;;;;;-144.30;61.63;86460.16;5068205;28;20280;-56
2024/01/28 06:19:39;;;;;;;5.60;2.60;;;;;;;-144.30;61.91;86470.09;5065050;28;20646;-57
2024/01/28 06:22:06;;;;;;;3.13;2.60;;;;;;;-144.30;61.62;86428.31;5059353;28;20213;-57
2024/01/28 06:24:35;;;;;;;4.00;2.87;;;;;;;-144.30;61.32;86434.28;5050652;28;20192;-57
2024/01/28 06:27:02;;;;;;;3.87;2.33;;;;;;;-144.30;61.11;86420.38;5051418;28;20255;-58
2024/01/28 06:29:32;;;;;;;3.53;2.57;;;;;;;-144.30;61.39;86410.44;5056916;28;20314;-58
2024/01/28 06:31:59;;;;;;;2.60;2.40;;;;;;;-144.30;61.01;86434.28;5051438;28;20311;-58
2024/01/28 06:34:26;;;;;;;6.03;2.70;;;;;;;-144.30;60.66;86426.34;5051252;28;20291;-57
2024/01/28 06:36:53;;;;;;;4.47;2.87;;;;;;;-144.30;62.71;86418.38;5052975;28;20216;-59
2024/01/28 06:39:20;;;;;;;6.07;2.67;;;;;;;-144.30;61.13;86434.28;5066031;28;20769;-58
2024/01/28 06:41:50;;;;;;;5.77;3.17;;;;;;;-144.30;60.80;86394.53;5066485;28;20211;-57
2024/01/28 06:44:17;;;;;;;3.43;3.00;;;;;;;-144.30;60.14;86380.59;5067702;28;20578;-58
2024/01/28 06:46:44;;;;;;;4.10;3.30;;;;;;;-144.30;59.13;86402.47;5070925;28;20698;-58
2024/01/28 06:49:11;;;;;;;4.97;4.40;;;;;;;-144.30;58.63;86370.66;5070783;28;20229;-57
2024/01/28 06:51:41;;;;;;;6.83;4.17;;;;;;;-144.30;58.66;86330.88;5057750;28;20292;-58
2024/01/28 06:54:10;;;;;;;5.30;3.80;;;;;;;-144.30;58.69;86350.78;5071088;28;20291;-57
2024/01/28 06:56:37;;;;;;;6.07;4.40;;;;;;;-144.30;58.27;86352.75;5052008;28;20455;-57
2024/01/28 06:59:05;;;;;;;5.83;4.27;;;;;;;-144.30;58.09;86334.88;5050844;28;20294;-56
2024/01/28 07:01:32;;;;;;;4.00;3.67;;;;;;;-144.30;57.88;86352.75;5050515;28;20223;-56
2024/01/28 07:03:59;;;;;;;5.00;3.70;;;;;;;-144.30;57.14;86350.78;5051013;28;20204;-58
2024/01/28 07:06:26;;;;;;;8.10;3.80;;;;;;;-144.30;57.17;86326.91;5056486;28;20192;-57
2024/01/28 07:08:53;;;;;;;3.87;3.40;;;;;;;-144.30;57.03;86277.19;5070902;28;20204;-58
2024/01/28 07:11:21;;;;;;;4.97;3.70;;;;;;;-144.30;56.87;86350.78;5069195;28;20234;-58
2024/01/28 07:13:48;;;;;;;5.33;4.20;;;;;;;-144.30;57.25;86303.06;5070577;28;20613;-56
2024/01/28 07:16:16;;;;;;;7.23;3.13;;;;;;;-144.30;56.94;86364.69;5070851;28;20184;-57
2024/01/28 07:18:43;;;;;;;3.47;3.07;;;;;;;-144.30;57.24;86350.78;5070725;28;20686;-57
2024/01/28 07:21:12;;;;;;;10.67;3.70;;;;;;;-144.30;56.92;86338.84;5070052;28;20279;-58
2024/01/28 07:23:40;;;;;;;7.20;4.30;;;;;;;-144.30;57.06;86346.81;5070233;28;20207;-58
2024/01/28 07:26:08;;;;;;;7.17;4.13;;;;;;;-144.30;56.75;86303.06;5070423;28;20206;-59
2024/01/28 07:28:35;;;;;;;9.40;5.10;;;;;;;-144.30;56.48;86332.88;5069410;28;20259;-57
2024/01/28 07:31:02;;;;;;;6.50;4.17;;;;;;;-144.30;56.80;86303.06;5070436;28;20196;-59
2024/01/28 07:33:31;;;;;;;4.40;3.93;;;;;;;-144.30;56.81;86360.72;5068827;28;20208;-58
2024/01/28 07:35:58;;;;;;;10.47;4.27;;;;;;;-144.30;56.45;86330.88;5066094;28;20196;-60
2024/01/28 07:38:25;;;;;;;4.97;3.57;;;;;;;-144.30;56.55;86297.09;5069620;28;20776;-57
2024/01/28 07:40:52;;;;;;;6.00;4.13;;;;;;;-144.30;57.14;86342.81;5069831;28;20656;-56
2024/01/28 07:43:19;;;;;;;6.77;3.67;;;;;;;-144.30;56.97;86314.97;5069495;28;20200;-57
2024/01/28 07:45:46;;;;;;;5.20;3.20;;;;;;;-144.30;57.53;86346.81;5069301;28;20203;-57
2024/01/28 07:48:13;;;;;;;4.60;3.57;;;;;;;-144.30;57.24;86342.81;5070047;28;20333;-55
2024/01/28 07:50:42;;;;;;;4.93;4.20;;;;;;;-144.30;57.58;86311.00;5060891;28;20219;-56
2024/01/28 07:53:09;;;;;;;10.37;4.40;;;;;;;-144.30;57.19;86332.88;5068240;28;20606;-56
2024/01/28 07:55:36;;;;;;;8.07;5.00;;;;;;;-144.30;57.68;86326.91;5068553;28;20671;-59
2024/01/28 07:58:03;;;;;;;7.57;4.10;;;;;;;-144.30;57.96;86342.81;5070061;28;20310;-58
2024/01/28 08:00:30;;;;;;;4.97;3.60;;;;;;;-144.30;57.77;86346.81;5069999;28;20583;-57
2024/01/28 08:02:57;;;;;;;4.93;3.87;;;;;;;-144.30;58.30;86314.97;5070173;28;20228;-58
2024/01/28 08:05:25;;;;;;;6.07;4.27;;;;;;;-144.30;58.61;86360.72;5068714;28;20214;-58
2024/01/28 08:07:53;;;;;;;5.77;3.93;;;;;;;-144.30;58.88;86348.78;5069812;28;20265;-58
2024/01/28 08:10:20;;;;;;;3.83;3.40;;;;;;;-144.30;58.05;86350.78;5069801;28;20199;-56
2024/01/28 08:12:47;;;;;;;4.37;3.97;;;;;;;-144.30;58.60;86303.06;5069860;28;20196;-58
2024/01/28 08:15:15;;;;;;;6.13;4.13;;;;;;;-144.30;58.54;86330.88;5070154;28;20596;-58
2024/01/28 08:17:43;;;;;;;4.07;3.37;;;;;;;-144.30;57.87;86350.78;5069540;28;20192;-58
2024/01/28 08:20:10;;;;;;;3.90;3.53;;;;;;;-144.30;57.84;86354.75;5069837;28;20200;-58
2024/01/28 08:22:38;;;;;;;6.47;3.70;;;;;;;-144.30;58.20;86366.69;5069478;28;20642;-58
2024/01/28 08:25:08;;;;;;;5.97;3.20;;;;;;;-144.30;58.23;86324.94;5070069;28;20566;-58
2024/01/28 08:27:35;;;;;;;2.97;2.67;;;;;;;-144.30;57.65;86356.75;5069384;28;20228;-59
2024/01/28 08:30:02;;;;;;;6.80;3.20;;;;;;;-144.30;57.79;86362.72;5070090;28;20282;-59
2024/01/28 08:32:29;;;;;;;3.33;3.03;;;;;;;-144.30;57.52;86342.81;5066810;28;20200;-58
2024/01/28 08:34:56;;;;;;;3.10;2.73;;;;;;;-144.30;57.38;86344.81;5068745;28;20206;-55
2024/01/28 08:37:23;;;;;;;4.80;2.83;;;;;;;-144.30;57.21;86338.84;5088449;28;20234;-56
2024/01/28 08:39:50;;;;;;;4.47;2.77;;;;;;;-144.30;57.38;86299.06;5087944;28;20233;-56
2024/01/28 08:42:19;;;;;;;3.47;3.00;;;;;;;-144.30;57.38;86340.84;5089852;28;20634;-55
2024/01/28 08:44:46;;;;;;;7.23;2.97;;;;;;;-144.30;57.29;86328.91;5070841;28;20302;-54
2024/01/28 08:47:14;;;;;;;4.87;2.87;;;;;;;-144.30;57.60;86350.78;5069874;28;20200;-56
2024/01/28 08:49:41;;;;;;;4.93;2.40;;;;;;;-144.30;57.13;86301.06;5066602;28;20242;-55
2024/01/28 08:52:08;;;;;;;5.73;2.20;;;;;;;-144.30;56.63;86301.06;5073513;28;20200;-56
2024/01/28 08:54:36;;;;;;;3.03;2.73;;;;;;;-144.30;56.67;86340.84;5071864;28;20253;-56
2024/01/28 08:57:04;;;;;;;4.93;2.80;;;;;;;-144.30;56.39;86309.03;5073530;28;20196;-55
2024/01/28 08:59:32;;;;;;;3.27;2.60;;;;;;;-144.30;56.24;86255.34;5073040;28;20707;-55
2024/01/28 09:02:00;;;;;;;7.03;3.13;;;;;;;-144.30;56.20;86285.16;5073520;28;20676;-55
2024/01/28 09:04:27;;;;;;;4.53;3.10;;;;;;;-144.30;56.05;86527.75;5073490;28;20202;-57
2024/01/28 09:06:54;;;;;;;3.60;2.97;;;;;;;-144.30;55.49;86285.16;5073435;28;20203;-57
2024/01/28 09:09:21;;;;;;;3.10;2.90;;;;;;;-144.30;55.34;86287.16;5073196;28;20198;-58
2024/01/28 09:11:48;;;;;;;4.50;2.37;;;;;;;-144.30;55.42;86291.13;5065543;28;20221;-58
2024/01/28 09:14:15;;;;;;;5.00;3.17;;;;;;;-144.30;54.81;86295.09;5068868;28;20208;-57
2024/01/28 09:16:44;;;;;;;3.00;2.70;;;;;;;-144.30;55.17;86314.97;5071462;28;20285;-58
2024/01/28 09:19:11;;;;;;;2.67;2.20;;;;;;;-144.30;54.62;86285.16;5066442;28;20251;-59
2024/01/28 09:21:38;;;;;;;2.70;2.50;;;;;;;-144.30;54.74;86275.22;5070526;28;20278;-59
2024/01/28 09:24:05;;;;;;;3.20;2.40;;;;;;;-144.30;54.69;86283.16;5066753;28;20287;-57
2024/01/28 09:26:32;;;;;;;4.03;2.33;;;;;;;-144.30;54.23;86231.47;5080763;28;20260;-59
2024/01/28 09:28:59;;;;;;;3.77;2.17;;;;;;;-144.30;54.02;86309.03;5084403;28;20236;-58
2024/01/28 09:31:26;;;;;;;3.30;2.40;;;;;;;-144.30;53.59;86233.47;5062615;28;20208;-59
2024/01/28 09:33:55;;;;;;;6.73;2.60;;;;;;;-144.30;53.51;87273.56;5067784;28;20204;-59
2024/01/28 09:36:22;;;;;;;4.70;2.63;;;;;;;-144.30;53.22;86245.38;5057718;28;20204;-59
2024/01/28 09:38:49;;;;;;;3.40;2.50;;;;;;;-144.30;52.83;86267.25;5069851;28;20277;-58
2024/01/28 09:41:23;;;;;;;3.03;2.73;;;;;;;-144.30;53.12;86209.59;5072506;28;20246;-59
2024/01/28 09:43:50;;;;;;;3.27;2.37;;;;;;;-144.30;53.04;86243.41;5070187;28;20195;-59
2024/01/28 09:46:18;;;;;;;7.27;3.00;;;;;;;-144.30;52.78;86227.50;5072457;28;20195;-59
2024/01/28 09:48:47;;;;;;;3.20;2.67;;;;;;;-144.30;52.48;86227.50;5072572;28;20214;-58
2024/01/28 09:51:20;;;;;;;3.77;2.10;;;;;;;-144.30;52.36;86251.34;5072554;28;20200;-59
2024/01/28 09:53:47;;;;;;;2.37;2.00;;;;;;;-144.30;52.10;86219.53;5072303;28;20287;-57
2024/01/28 09:56:16;;;;;;;2.73;1.90;;;;;;;-144.30;52.26;86281.19;5072494;28;20231;-59
2024/01/28 09:58:45;;;;;;;2.27;2.07;;;;;;;-144.30;52.14;86217.56;5071348;28;20223;-59
2024/01/28 10:01:13;;;;;;;2.90;1.83;;;;;;;-144.30;54.31;86122.09;5072226;28;20196;-59
2024/01/28 10:03:40;;;;;;;2.70;2.03;;;;;;;-144.30;51.98;86227.50;5070742;28;20200;-59
2024/01/28 10:06:10;;;;;;;2.93;1.87;;;;;;;-144.30;50.87;86221.53;5070658;28;20203;-58
2024/01/28 10:08:38;;;;;;;3.97;2.20;;;;;;;-144.30;50.43;86233.47;5071440;28;20227;-59
2024/01/28 10:11:06;;;;;;;5.23;2.07;;;;;;;-144.30;50.60;86239.44;5071020;28;20291;-58
2024/01/28 10:13:33;;;;;;;3.27;2.07;;;;;;;-144.30;50.40;86227.50;5070932;28;20725;-56
2024/01/28 10:16:00;;;;;;;2.13;1.93;;;;;;;-144.30;49.91;86223.50;5070413;28;20595;-56
2024/01/28 10:18:29;;;;;;;6.90;1.90;;;;;;;-144.30;49.73;86239.44;5071674;28;20228;-57
2024/01/28 10:20:55;;;;;;;1.77;1.67;;;;;;;-144.30;49.93;86223.50;5071775;28;20192;-56
2024/01/28 10:23:22;;;;;;;7.60;1.90;;;;;;;-144.30;49.83;86223.50;5059664;28;20300;-56
2024/01/28 10:25:52;;;;;;;2.23;1.63;;;;;;;-144.30;50.10;86591.38;5064249;28;20200;-56
2024/01/28 10:28:19;;;;;;;1.97;1.70;;;;;;;-144.30;50.19;86215.56;5065891;28;20256;-57
2024/01/28 10:30:49;;;;;;;2.80;2.53;;;;;;;-144.30;50.09;86243.41;5055908;28;20263;-56
2024/01/28 10:33:16;;;;;;;3.40;2.10;;;;;;;-144.30;50.43;86048.53;5058923;28;20236;-56
2024/01/28 10:35:45;;;;;;;3.43;3.13;;;;;;;-144.30;49.70;86187.72;5050876;28;20197;-57
2024/01/28 10:38:16;;;;;;;6.10;3.03;;;;;;;-144.30;49.42;86207.59;5070962;28;20227;-58
2024/01/28 10:40:46;;;;;;;3.03;2.40;;;;;;;-144.30;49.81;86227.50;5068311;28;20660;-56
2024/01/28 10:43:17;;;;;;;2.87;1.70;;;;;;;-144.30;49.42;86199.66;5070777;28;20203;-59
2024/01/28 10:45:47;;;;;;;4.37;2.40;;;;;;;-144.30;50.06;86211.59;5070335;28;20196;-58
2024/01/28 10:48:18;;;;;;;8.67;3.20;;;;;;;-144.30;50.09;86235.44;5068211;28;20213;-58
2024/01/28 10:50:45;;;;;;;8.13;3.97;;;;;;;-144.30;49.81;86223.50;5070839;28;20907;-58
2024/01/28 10:53:15;;;;;;;5.67;4.20;;;;;;;-144.30;50.40;86251.34;5067677;28;20660;-57
2024/01/28 10:55:43;;;;;;;5.73;4.00;;;;;;;-144.30;50.12;86237.44;5070960;28;20203;-58
2024/01/28 10:58:11;;;;;;;5.43;2.90;;;;;;;-144.30;49.73;86219.53;5071167;28;20227;-58
2024/01/28 11:00:40;;;;;;;3.33;2.33;;;;;;;-144.30;49.95;86233.47;5070908;28;20586;-58
2024/01/28 11:03:08;;;;;;;3.47;2.20;;;;;;;-144.30;49.85;86255.34;5066501;28;20739;-58
2024/01/28 11:05:36;;;;;;;3.87;2.80;;;;;;;-144.30;50.13;86233.47;5069786;28;20282;-58
2024/01/28 11:08:04;;;;;;;5.20;3.07;;;;;;;-144.30;49.65;86199.66;5090077;28;20195;-57
2024/01/28 11:10:31;;;;;;;4.53;3.33;;;;;;;-144.30;50.04;86245.38;5088221;28;20238;-59
2024/01/28 11:12:58;;;;;;;6.03;3.13;;;;;;;-144.30;50.31;86203.63;5091139;28;20289;-57
2024/01/28 11:15:26;;;;;;;3.17;2.50;;;;;;;-144.30;49.95;86211.59;5091139;28;20199;-58
2024/01/28 11:17:56;;;;;;;3.70;2.70;;;;;;;-144.30;49.35;86181.75;5090805;28;20203;-57